Plymouth, Illinois
Current Conditions -  °F | °C
As of 1:35 AM on Thursday 23 Oct 2014 (Local Time) from KMQB Reporting Station
Clear Clear  
Wind Chill: 34°   Ceiling: Unl
Heat Index: 40°   Visibility: 10mi
Dew Point: 37°   Wind: 9mph
Humidity: 87%   Direction: 150°SSE
Pressure: 30.21"   Gusts: NA
Location:  40.29°N, 90.92°W
Report Text: KMQB 230635Z AUTO 15008KT 10SM CLR 05/03 A3021 RMK AO2 T00460026
Loading
Personal Weather Stations






























Interactive Weather Map
Tropical Storm Tracking
New forecast layout! Learn more

10-Day Weather Forecast

Advertisements
Track Severe Weather on mobile